Stanley, IA

10:28 PM CST on November 23, 2014 (GMT -0600)
Maplewood Dr | Change Station
CLOSE
Current Station
Personal Weather Station
Location: Oelwein, IA
Elevation: 1135 ft
Nearby Weather Stations

Elev 1135 ft 42.69 °N, 91.91 °W | Updated 14 seconds ago

Overcast
Overcast
40.0 °F
Feels Like 38 °F
N
3.4
Wind Variable Wind from NNW
Gusts 5.8 mph

Today
High -- | Low -- °F
--% Chance of Precip.
Yesterday
High -- | Low -- °F
Precip. -- in
7:08 AM 4:38 PM
Waxing Crescent, 3% visible
Pressure 29.25 in
Visibility 7.0 miles
Clouds Overcast 700 ft
Windchill 38 °F
Dew Point 38 °F
Humidity 93%
Rainfall 0.29 in
Snow Depth Not available.
UV 0 out of 12
Pollen .10 out of 12
Air Quality Not available.
Flu Activity Not available.
METAR KOLZ 240415Z AUTO 33017G23KT 7SM OVC007 04/04 A2925 RMK AO2

More Conditions Fewer Conditions

Pressure 29.25 in
Visibility 7.0 miles
Clouds Overcast 700 ft
Windchill 38 °F
Dew Point 38 °F
Humidity 93%
Rainfall 0.29 in
Snow Depth Not available.
UV 0 out of 12
Pollen .10 out of 12
Air Quality Not available.
Flu Activity Not available.
METAR KOLZ 240415Z AUTO 33017G23KT 7SM OVC007 04/04 A2925 RMK AO2

More Conditions Fewer Conditions

10-Day Weather Forecast

Almanac

Astronomy

Nov. 23, 2014 Rise Set
Actual Time
Civil Twilight
Nautical Twilight
Astronomical Twilight
Moon
Length of Visible Light
Length of Day
Tomorrow will be .
, % of the Moon is Illuminated

Today's Extremes

State Highs State Lows

Community

WunderPhotos

Upload Photos

1,773,266 photos uploaded!

WunderBlogs® & News

Nearby

Air Quality

  Air Quality AQ Index Pollutant
Not available.

Snow Depth

Station Depth Elevation

Earthquake Activity

City Distance Mag. Time & Date
Minimum magnitude displayed is 2.5.

Coastal Water Temperatures

Place Temperature

Nearby Weather Stations